sensor_id;sensor_type;location;lat;lon;timestamp;P1;durP1;ratioP1;P2;durP2;ratioP2
10142;SDS011;5112;54.088;13.446;2023-12-04T00:01:19;20.67;;;11.23;;
10142;SDS011;5112;54.088;13.446;2023-12-04T00:11:22;24.42;;;16.65;;
10142;SDS011;5112;54.088;13.446;2023-12-04T00:21:23;22.87;;;12.17;;
10142;SDS011;5112;54.088;13.446;2023-12-04T00:31:27;17.27;;;11.30;;
10142;SDS011;5112;54.088;13.446;2023-12-04T00:41:31;22.92;;;16.45;;
10142;SDS011;5112;54.088;13.446;2023-12-04T00:51:38;22.33;;;12.37;;
10142;SDS011;5112;54.088;13.446;2023-12-04T01:01:39;24.13;;;13.47;;
10142;SDS011;5112;54.088;13.446;2023-12-04T01:11:43;26.57;;;17.10;;
10142;SDS011;5112;54.088;13.446;2023-12-04T01:21:44;26.55;;;16.88;;
10142;SDS011;5112;54.088;13.446;2023-12-04T01:31:47;22.83;;;12.63;;
10142;SDS011;5112;54.088;13.446;2023-12-04T01:41:49;20.67;;;12.83;;
10142;SDS011;5112;54.088;13.446;2023-12-04T01:51:52;23.90;;;13.77;;
10142;SDS011;5112;54.088;13.446;2023-12-04T02:01:54;23.07;;;13.40;;
10142;SDS011;5112;54.088;13.446;2023-12-04T02:11:57;22.37;;;14.03;;
10142;SDS011;5112;54.088;13.446;2023-12-04T02:22:00;23.97;;;13.70;;
10142;SDS011;5112;54.088;13.446;2023-12-04T02:32:03;25.30;;;14.47;;
10142;SDS011;5112;54.088;13.446;2023-12-04T02:42:06;19.83;;;11.40;;
10142;SDS011;5112;54.088;13.446;2023-12-04T02:52:11;22.07;;;12.97;;
10142;SDS011;5112;54.088;13.446;2023-12-04T03:02:12;22.60;;;12.47;;
10142;SDS011;5112;54.088;13.446;2023-12-04T03:12:15;25.20;;;16.37;;
10142;SDS011;5112;54.088;13.446;2023-12-04T03:22:17;25.17;;;14.40;;
10142;SDS011;5112;54.088;13.446;2023-12-04T03:32:20;26.17;;;14.93;;
10142;SDS011;5112;54.088;13.446;2023-12-04T03:42:22;24.60;;;13.17;;
10142;SDS011;5112;54.088;13.446;2023-12-04T03:52:25;22.20;;;14.50;;
10142;SDS011;5112;54.088;13.446;2023-12-04T04:02:26;25.37;;;13.87;;
10142;SDS011;5112;54.088;13.446;2023-12-04T04:12:30;20.87;;;13.67;;
10142;SDS011;5112;54.088;13.446;2023-12-04T04:22:32;24.33;;;18.13;;
10142;SDS011;5112;54.088;13.446;2023-12-04T04:32:38;23.40;;;14.73;;
10142;SDS011;5112;54.088;13.446;2023-12-04T04:42:40;22.60;;;13.90;;
10142;SDS011;5112;54.088;13.446;2023-12-04T04:52:43;25.47;;;13.67;;
10142;SDS011;5112;54.088;13.446;2023-12-04T05:02:45;24.20;;;13.77;;
10142;SDS011;5112;54.088;13.446;2023-12-04T05:12:47;26.92;;;18.55;;
10142;SDS011;5112;54.088;13.446;2023-12-04T05:22:49;27.00;;;19.23;;
10142;SDS011;5112;54.088;13.446;2023-12-04T05:32:53;24.17;;;15.10;;
10142;SDS011;5112;54.088;13.446;2023-12-04T05:42:56;25.93;;;15.47;;
10142;SDS011;5112;54.088;13.446;2023-12-04T05:52:59;26.65;;;19.25;;
10142;SDS011;5112;54.088;13.446;2023-12-04T06:03:01;27.13;;;17.70;;
10142;SDS011;5112;54.088;13.446;2023-12-04T06:13:04;23.67;;;13.80;;
10142;SDS011;5112;54.088;13.446;2023-12-04T06:23:05;29.90;;;15.20;;
10142;SDS011;5112;54.088;13.446;2023-12-04T06:33:09;34.22;;;22.95;;
10142;SDS011;5112;54.088;13.446;2023-12-04T06:43:13;29.40;;;15.47;;
10142;SDS011;5112;54.088;13.446;2023-12-04T06:53:17;29.40;;;15.47;;
10142;SDS011;5112;54.088;13.446;2023-12-04T07:03:19;31.27;;;15.57;;
10142;SDS011;5112;54.088;13.446;2023-12-04T07:13:22;25.13;;;15.73;;
10142;SDS011;5112;54.088;13.446;2023-12-04T07:23:23;24.13;;;14.83;;
10142;SDS011;5112;54.088;13.446;2023-12-04T07:33:26;32.03;;;15.90;;
10142;SDS011;5112;54.088;13.446;2023-12-04T07:43:28;28.17;;;16.17;;
10142;SDS011;5112;54.088;13.446;2023-12-04T07:53:32;27.10;;;16.40;;
10142;SDS011;5112;54.088;13.446;2023-12-04T08:03:33;27.23;;;15.70;;
10142;SDS011;5112;54.088;13.446;2023-12-04T08:13:36;28.53;;;15.20;;
10142;SDS011;5112;54.088;13.446;2023-12-04T08:23:39;28.57;;;15.50;;
10142;SDS011;5112;54.088;13.446;2023-12-04T08:33:42;30.30;;;14.73;;
10142;SDS011;5112;54.088;13.446;2023-12-04T08:43:45;28.00;;;15.30;;
10142;SDS011;5112;54.088;13.446;2023-12-04T08:53:48;28.93;;;14.57;;
10142;SDS011;5112;54.088;13.446;2023-12-04T09:03:51;25.43;;;14.27;;
10142;SDS011;5112;54.088;13.446;2023-12-04T09:13:54;23.87;;;14.33;;
10142;SDS011;5112;54.088;13.446;2023-12-04T09:23:56;25.90;;;13.63;;
10142;SDS011;5112;54.088;13.446;2023-12-04T09:33:59;23.93;;;15.20;;
10142;SDS011;5112;54.088;13.446;2023-12-04T09:44:01;22.33;;;14.60;;
10142;SDS011;5112;54.088;13.446;2023-12-04T09:54:04;27.17;;;15.70;;
10142;SDS011;5112;54.088;13.446;2023-12-04T10:04:06;25.73;;;14.33;;
10142;SDS011;5112;54.088;13.446;2023-12-04T10:14:16;25.57;;;14.53;;
10142;SDS011;5112;54.088;13.446;2023-12-04T10:24:31;22.20;;;13.30;;
10142;SDS011;5112;54.088;13.446;2023-12-04T10:34:36;22.43;;;12.10;;
10142;SDS011;5112;54.088;13.446;2023-12-04T10:44:39;17.80;;;12.17;;
10142;SDS011;5112;54.088;13.446;2023-12-04T10:54:43;18.60;;;11.90;;
10142;SDS011;5112;54.088;13.446;2023-12-04T11:04:44;18.30;;;11.70;;
10142;SDS011;5112;54.088;13.446;2023-12-04T11:14:51;19.40;;;11.30;;
10142;SDS011;5112;54.088;13.446;2023-12-04T11:24:57;17.57;;;11.63;;
10142;SDS011;5112;54.088;13.446;2023-12-04T11:35:00;19.67;;;12.03;;
10142;SDS011;5112;54.088;13.446;2023-12-04T11:45:05;15.23;;;11.07;;
10142;SDS011;5112;54.088;13.446;2023-12-04T11:55:09;17.47;;;10.27;;
10142;SDS011;5112;54.088;13.446;2023-12-04T12:05:11;15.97;;;10.23;;
10142;SDS011;5112;54.088;13.446;2023-12-04T12:15:14;13.90;;;9.90;;
10142;SDS011;5112;54.088;13.446;2023-12-04T12:25:16;13.63;;;9.97;;
10142;SDS011;5112;54.088;13.446;2023-12-04T12:35:20;15.43;;;10.30;;
10142;SDS011;5112;54.088;13.446;2023-12-04T12:45:23;15.63;;;10.77;;
10142;SDS011;5112;54.088;13.446;2023-12-04T12:55:26;13.73;;;10.33;;
10142;SDS011;5112;54.088;13.446;2023-12-04T13:05:28;15.33;;;10.33;;
10142;SDS011;5112;54.088;13.446;2023-12-04T13:15:31;15.70;;;10.77;;
10142;SDS011;5112;54.088;13.446;2023-12-04T13:25:33;13.87;;;10.23;;
10142;SDS011;5112;54.088;13.446;2023-12-04T13:35:36;17.90;;;11.27;;
10142;SDS011;5112;54.088;13.446;2023-12-04T13:45:37;18.37;;;11.43;;
10142;SDS011;5112;54.088;13.446;2023-12-04T13:55:40;15.73;;;10.40;;
10142;SDS011;5112;54.088;13.446;2023-12-04T14:06:01;18.47;;;10.77;;
10142;SDS011;5112;54.088;13.446;2023-12-04T14:16:04;18.10;;;11.03;;
10142;SDS011;5112;54.088;13.446;2023-12-04T14:26:06;14.70;;;9.63;;
10142;SDS011;5112;54.088;13.446;2023-12-04T14:36:10;15.50;;;10.17;;
10142;SDS011;5112;54.088;13.446;2023-12-04T14:46:13;17.67;;;11.50;;
10142;SDS011;5112;54.088;13.446;2023-12-04T14:56:16;15.90;;;11.50;;
10142;SDS011;5112;54.088;13.446;2023-12-04T15:06:26;15.13;;;11.23;;
10142;SDS011;5112;54.088;13.446;2023-12-04T15:16:45;18.43;;;11.73;;
10142;SDS011;5112;54.088;13.446;2023-12-04T15:26:50;17.07;;;10.73;;
10142;SDS011;5112;54.088;13.446;2023-12-04T15:36:54;16.00;;;10.67;;
10142;SDS011;5112;54.088;13.446;2023-12-04T15:46:55;17.60;;;10.97;;
10142;SDS011;5112;54.088;13.446;2023-12-04T15:56:59;15.77;;;11.83;;
10142;SDS011;5112;54.088;13.446;2023-12-04T16:07:01;16.90;;;10.93;;
10142;SDS011;5112;54.088;13.446;2023-12-04T16:17:04;18.13;;;11.60;;
10142;SDS011;5112;54.088;13.446;2023-12-04T16:27:06;20.05;;;15.43;;
10142;SDS011;5112;54.088;13.446;2023-12-04T16:37:09;18.70;;;12.67;;
10142;SDS011;5112;54.088;13.446;2023-12-04T16:47:11;20.60;;;14.37;;
10142;SDS011;5112;54.088;13.446;2023-12-04T16:57:14;21.15;;;16.63;;
10142;SDS011;5112;54.088;13.446;2023-12-04T17:07:16;21.70;;;14.27;;
10142;SDS011;5112;54.088;13.446;2023-12-04T17:17:19;19.67;;;15.93;;
10142;SDS011;5112;54.088;13.446;2023-12-04T17:27:20;17.33;;;11.40;;
10142;SDS011;5112;54.088;13.446;2023-12-04T17:37:23;18.30;;;12.37;;
10142;SDS011;5112;54.088;13.446;2023-12-04T17:47:25;19.63;;;12.13;;
10142;SDS011;5112;54.088;13.446;2023-12-04T17:57:28;18.47;;;12.17;;
10142;SDS011;5112;54.088;13.446;2023-12-04T18:07:30;19.23;;;11.90;;
10142;SDS011;5112;54.088;13.446;2023-12-04T18:17:32;19.10;;;12.50;;
10142;SDS011;5112;54.088;13.446;2023-12-04T18:27:41;14.87;;;10.97;;
10142;SDS011;5112;54.088;13.446;2023-12-04T18:37:46;16.03;;;10.93;;
10142;SDS011;5112;54.088;13.446;2023-12-04T18:47:56;16.40;;;11.30;;
10142;SDS011;5112;54.088;13.446;2023-12-04T18:58:02;16.67;;;11.10;;
10142;SDS011;5112;54.088;13.446;2023-12-04T19:08:05;15.50;;;10.60;;
10142;SDS011;5112;54.088;13.446;2023-12-04T19:18:08;14.63;;;9.77;;
10142;SDS011;5112;54.088;13.446;2023-12-04T19:28:11;15.60;;;10.87;;
10142;SDS011;5112;54.088;13.446;2023-12-04T19:38:14;17.03;;;11.27;;
10142;SDS011;5112;54.088;13.446;2023-12-04T19:48:19;17.77;;;11.03;;
10142;SDS011;5112;54.088;13.446;2023-12-04T19:58:22;18.53;;;12.10;;
10142;SDS011;5112;54.088;13.446;2023-12-04T20:08:24;26.93;;;16.13;;
10142;SDS011;5112;54.088;13.446;2023-12-04T20:18:27;19.03;;;14.00;;
10142;SDS011;5112;54.088;13.446;2023-12-04T20:28:29;16.80;;;11.53;;
10142;SDS011;5112;54.088;13.446;2023-12-04T20:38:32;18.67;;;13.07;;
10142;SDS011;5112;54.088;13.446;2023-12-04T20:48:34;20.53;;;12.53;;
10142;SDS011;5112;54.088;13.446;2023-12-04T20:58:38;23.13;;;17.83;;
10142;SDS011;5112;54.088;13.446;2023-12-04T21:08:40;21.57;;;14.37;;
10142;SDS011;5112;54.088;13.446;2023-12-04T21:18:43;18.77;;;13.20;;
10142;SDS011;5112;54.088;13.446;2023-12-04T21:28:45;21.40;;;13.20;;
10142;SDS011;5112;54.088;13.446;2023-12-04T21:38:48;21.57;;;13.70;;
10142;SDS011;5112;54.088;13.446;2023-12-04T21:48:50;22.03;;;13.57;;
10142;SDS011;5112;54.088;13.446;2023-12-04T21:58:53;19.03;;;12.60;;
10142;SDS011;5112;54.088;13.446;2023-12-04T22:08:55;19.47;;;13.63;;
10142;SDS011;5112;54.088;13.446;2023-12-04T22:18:58;20.23;;;13.03;;
10142;SDS011;5112;54.088;13.446;2023-12-04T22:29:00;20.97;;;13.47;;
10142;SDS011;5112;54.088;13.446;2023-12-04T22:39:03;20.17;;;13.10;;
10142;SDS011;5112;54.088;13.446;2023-12-04T22:49:05;17.70;;;12.43;;
10142;SDS011;5112;54.088;13.446;2023-12-04T22:59:07;18.10;;;12.73;;
10142;SDS011;5112;54.088;13.446;2023-12-04T23:09:09;19.53;;;13.10;;
10142;SDS011;5112;54.088;13.446;2023-12-04T23:19:13;19.77;;;12.53;;
10142;SDS011;5112;54.088;13.446;2023-12-04T23:29:15;18.07;;;11.37;;
10142;SDS011;5112;54.088;13.446;2023-12-04T23:39:19;17.17;;;11.23;;
10142;SDS011;5112;54.088;13.446;2023-12-04T23:49:20;16.80;;;11.17;;
10142;SDS011;5112;54.088;13.446;2023-12-04T23:59:23;17.83;;;11.23;;
